Thunderstorms From: 15-12-2017 06:00 Until: 16-12-2017 06:00 warning for: Thunderstorms Level: Yellow info button

Although rather usual in this region, locally or potentially dangerous phenomena are expected. (such as local winds, summer thunderstorms, rising streams or high waves) Be aware and pay attention to the latest weather updates, especially if you carry out activities exposed to weather or close to a stream or shoreline. 


Meteo18 Weather Cam more information Meteo18 Weather Cam


warning for Thunderstorms more information blitzortung!


Rain radar more information rain snow radar


Visit our other weather sites:

Template documentation
and downloads

And another site



Weather Underground History page Text

Daily Summary for April 27, 2016 Units:  Metric    English   Both
« Previous Day
Next Day »
Daily Weekly Monthly Yearly Custom
  High: Low: Average:
Temperature: 10.4 °C -2.5 °C 2.6 °C
Dew Point: 3.9 °C -3.0 °C 0 °C
Humidity: 97 % 48 % 85 %
Wind Speed: 3.2 km/h 0.0 km/h 0.2 km/h
Wind Gust: 9.7 km/h - -
Wind:- - SW
Pressure: 1014.1 hPa 1011.4 hPa -
Precipitation: 0.3 mm    
Historical Graphs
 
 
Tabular Data for April 27, 2016
Time Temperature Dew Point Pressure Wind Wind Speed Wind Gust Humidity Rainfall Rate (Hourly)
00:02 1.8 °C 0.5 °C 1011.4 hPa Calm   3.2 km/h 91 % 0.0 mm
00:07 1.9 °C 0.4 °C 1011.4 hPa Calm   3.2 km/h 90 % 0.0 mm
00:12 1.8 °C 0.3 °C 1011.4 hPa Calm   3.2 km/h 90 % 0.0 mm
00:17 1.8 °C 0.3 °C 1011.4 hPa Calm   3.2 km/h 90 % 0.0 mm
00:22 1.6 °C 0.1 °C 1011.4 hPa Calm   1.6 km/h 90 % 0.0 mm
00:27 1.4 °C -0.1 °C 1011.4 hPa Calm   1.6 km/h 90 % 0.0 mm
00:32 1.4 °C 0.1 °C 1011.4 hPa Calm   1.6 km/h 91 % 0.0 mm
00:42 1.3 °C 0.0 °C 1011.4 hPa Calm   1.6 km/h 91 % 0.0 mm
00:47 1.3 °C 0.0 °C 1011.4 hPa Calm   1.6 km/h 91 % 0.0 mm
00:52 1.3 °C 0.0 °C 1011.4 hPa Calm   1.6 km/h 91 % 0.0 mm
00:57 1.1 °C -0.2 °C 1011.7 hPa Calm   1.6 km/h 91 % 0.0 mm
01:07 0.9 °C -0.3 °C 1011.7 hPa Calm   1.6 km/h 92 % 0.0 mm
01:12 1.2 °C 0.2 °C 1011.7 hPa Calm   1.6 km/h 93 % 0.0 mm
01:17 1.1 °C -0.1 °C 1011.7 hPa Calm   1.6 km/h 92 % 0.0 mm
01:22 1.1 °C -0.1 °C 1011.7 hPa Calm   1.6 km/h 92 % 0.0 mm
01:27 1.1 °C -0.1 °C 1011.7 hPa Calm   1.6 km/h 92 % 0.0 mm
01:32 1.2 °C 0.0 °C 1011.7 hPa Calm   1.6 km/h 92 % 0.0 mm
01:37 1.2 °C 0.0 °C 1011.7 hPa Calm   1.6 km/h 92 % 0.0 mm
01:42 1.3 °C 0.0 °C 1011.7 hPa Calm   1.6 km/h 91 % 0.0 mm
01:47 1.2 °C -0.1 °C 1011.7 hPa Calm   1.6 km/h 91 % 0.0 mm
01:52 1.1 °C -0.2 °C 1011.7 hPa Calm   1.6 km/h 91 % 0.0 mm
01:57 0.9 °C -0.4 °C 1011.7 hPa Calm   1.6 km/h 91 % 0.0 mm
02:02 0.7 °C -0.6 °C 1011.7 hPa Calm   1.6 km/h 91 % 0.0 mm
02:07 0.4 °C -0.9 °C 1011.7 hPa Calm     91 % 0.0 mm
02:12 0.2 °C -1.1 °C 1011.7 hPa Calm     91 % 0.0 mm
02:17 0.1 °C -1.2 °C 1011.7 hPa Calm     91 % 0.0 mm
02:22 -0.1 °C -1.2 °C 1011.7 hPa Calm     92 % 0.0 mm
02:27 -0.2 °C -1.2 °C 1011.7 hPa Calm     93 % 0.0 mm
02:37 -0.2 °C -1.2 °C 1011.7 hPa Calm     93 % 0.0 mm
02:42 -0.3 °C -1.3 °C 1011.7 hPa Calm     93 % 0.0 mm
02:47 -0.4 °C -1.4 °C 1011.7 hPa Calm     93 % 0.0 mm
02:52 -0.6 °C -1.6 °C 1011.7 hPa Calm     93 % 0.0 mm
02:57 -0.8 °C -1.8 °C 1011.7 hPa Calm     93 % 0.0 mm
03:02 -0.9 °C -1.9 °C 1011.7 hPa Calm     93 % 0.0 mm
03:12 -0.9 °C -1.7 °C 1012.1 hPa Calm     94 % 0.0 mm
03:17 -1.1 °C -1.9 °C 1012.1 hPa Calm     94 % 0.0 mm
03:22 -1.3 °C -2.1 °C 1012.1 hPa Calm     94 % 0.0 mm
03:27 -1.4 °C -2.2 °C 1012.1 hPa Calm     94 % 0.0 mm
03:42 -1.5 °C -2.2 °C 1012.1 hPa Calm     95 % 0.0 mm
03:47 -1.4 °C -2.1 °C 1012.1 hPa Calm     95 % 0.0 mm
03:52 -1.2 °C -1.8 °C 1012.1 hPa Calm     96 % 0.0 mm
03:57 -1.2 °C -1.9 °C 1012.1 hPa Calm     95 % 0.0 mm
04:02 -1.3 °C -2.0 °C 1012.1 hPa Calm     95 % 0.0 mm
04:12 -1.4 °C -2.1 °C 1012.4 hPa Calm     95 % 0.0 mm
04:17 -1.4 °C -2.1 °C 1012.4 hPa Calm     95 % 0.0 mm
04:27 -1.4 °C -2.1 °C 1012.4 hPa Calm     95 % 0.0 mm
04:32 -1.4 °C -2.0 °C 1012.4 hPa Calm     96 % 0.0 mm
04:37 -1.4 °C -2.0 °C 1012.4 hPa Calm     96 % 0.0 mm
04:42 -1.4 °C -2.0 °C 1012.4 hPa Calm     96 % 0.0 mm
04:47 -1.4 °C -2.1 °C 1012.4 hPa Calm     95 % 0.0 mm
04:52 -1.3 °C -1.9 °C 1012.4 hPa Calm     96 % 0.0 mm
05:02 -1.3 °C -2.0 °C 1012.4 hPa Calm   1.6 km/h 95 % 0.0 mm
05:07 -1.4 °C -2.1 °C 1012.8 hPa Calm   1.6 km/h 95 % 0.0 mm
05:12 -1.4 °C -2.1 °C 1012.8 hPa Calm   1.6 km/h 95 % 0.0 mm
05:17 -1.4 °C -2.1 °C 1012.8 hPa Calm   1.6 km/h 95 % 0.0 mm
05:32 -1.6 °C -2.3 °C 1012.8 hPa Calm   1.6 km/h 95 % 0.0 mm
05:42 -1.8 °C -2.5 °C 1012.8 hPa Calm   1.6 km/h 95 % 0.0 mm
05:47 -1.8 °C -2.5 °C 1012.8 hPa Calm     95 % 0.0 mm
05:52 -1.9 °C -2.6 °C 1012.8 hPa Calm     95 % 0.0 mm
06:02 -2.0 °C -2.6 °C 1012.8 hPa Calm     96 % 0.0 mm
06:07 -1.9 °C -2.5 °C 1012.8 hPa Calm     96 % 0.0 mm
06:12 -1.9 °C -2.5 °C 1012.8 hPa Calm     96 % 0.0 mm
06:17 -2.1 °C -2.7 °C 1012.8 hPa Calm     96 % 0.0 mm
06:22 -2.2 °C -2.8 °C 1012.8 hPa Calm     96 % 0.0 mm
06:32 -2.4 °C -3.0 °C 1012.8 hPa Calm     96 % 0.0 mm
06:42 -2.4 °C -3.0 °C 1012.8 hPa Calm     96 % 0.0 mm
06:47 -2.5 °C -3.0 °C 1012.8 hPa Calm     96 % 0.0 mm
07:02 -2.3 °C -2.9 °C 1012.8 hPa Calm     96 % 0.0 mm
07:12 -2.2 °C -2.8 °C 1012.8 hPa Calm     96 % 0.0 mm
07:17 -2.2 °C -2.8 °C 1012.8 hPa Calm     96 % 0.0 mm
07:22 -2.2 °C -2.8 °C 1012.8 hPa Calm     96 % 0.0 mm
07:32 -1.8 °C -2.2 °C 1013.1 hPa Calm     97 % 0.0 mm
07:42 -1.4 °C -1.8 °C 1012.8 hPa Calm   1.6 km/h 97 % 0.0 mm
07:52 -1.2 °C -1.6 °C 1013.1 hPa Calm   1.6 km/h 97 % 0.0 mm
07:57 -1.1 °C -1.5 °C 1013.1 hPa Calm     97 % 0.0 mm
08:02 -1.0 °C -1.4 °C 1013.1 hPa Calm     97 % 0.0 mm
08:07 -0.8 °C -1.2 °C 1013.1 hPa Calm     97 % 0.0 mm
08:12 -0.7 °C -1.1 °C 1013.1 hPa Calm     97 % 0.0 mm
08:17 -0.4 °C -0.8 °C 1013.1 hPa Calm     97 % 0.0 mm
08:22 -0.2 °C -0.6 °C 1013.1 hPa Calm     97 % 0.0 mm
08:32 0.4 °C 0.0 °C 1013.4 hPa Calm     97 % 0.0 mm
08:42 0.9 °C 0.5 °C 1013.4 hPa Calm   1.6 km/h 97 % 0.0 mm
08:52 1.4 °C 1.0 °C 1013.4 hPa Calm   1.6 km/h 97 % 0.0 mm
08:57 1.4 °C 1.0 °C 1013.8 hPa Calm   1.6 km/h 97 % 0.0 mm
09:02 1.7 °C 1.1 °C 1013.8 hPa Calm   1.6 km/h 96 % 0.0 mm
09:07 2.1 °C 1.5 °C 1013.8 hPa Calm   1.6 km/h 96 % 0.0 mm
09:12 2.4 °C 1.7 °C 1013.8 hPa Calm   1.6 km/h 95 % 0.0 mm
09:17 2.4 °C 1.4 °C 1013.8 hPa Calm   1.6 km/h 93 % 0.0 mm
09:22 2.5 °C 1.3 °C 1013.8 hPa Calm   1.6 km/h 92 % 0.0 mm
09:42 4.9 °C 2.8 °C 1013.8 hPa Calm   1.6 km/h 86 % 0.0 mm
09:52 6.2 °C 3.0 °C 1013.8 hPa Calm   3.2 km/h 80 % 0.0 mm
09:57 6.7 °C 3.0 °C 1013.8 hPa Calm   3.2 km/h 77 % 0.0 mm
10:02 7.2 °C 3.3 °C 1013.8 hPa Calm   3.2 km/h 76 % 0.0 mm
10:12 7.2 °C 3.4 °C 1013.8 hPa West 1.6 km/h 3.2 km/h 77 % 0.0 mm
10:17 7.3 °C 3.5 °C 1013.8 hPa WSW 1.6 km/h 8.0 km/h 77 % 0.3 mm
10:22 7.4 °C 3.4 °C 1013.8 hPa SW 1.6 km/h 8.0 km/h 76 % 0.3 mm
10:27 7.7 °C 3.7 °C 1013.8 hPa Calm   8.0 km/h 76 % 0.3 mm
10:32 8.0 °C 3.5 °C 1013.8 hPa Calm   8.0 km/h 73 % 0.3 mm
10:42 8.3 °C 3.9 °C 1013.8 hPa WSW 1.6 km/h 8.0 km/h 74 % 0.3 mm
10:52 8.2 °C 3.5 °C 1013.8 hPa SW 1.6 km/h 6.4 km/h 72 % 0.3 mm
10:57 7.9 °C 3.2 °C 1013.8 hPa Calm   6.4 km/h 72 % 0.3 mm
11:02 7.8 °C 2.7 °C 1013.8 hPa SSW 1.6 km/h 6.4 km/h 70 % 0.3 mm
11:12 7.9 °C 2.6 °C 1014.1 hPa Calm   6.4 km/h 69 % 0.3 mm
11:17 8.1 °C 3.2 °C 1013.8 hPa Calm   9.7 km/h 71 % 0.0 mm
11:27 8.7 °C 2.9 °C 1013.8 hPa SSW 1.6 km/h 1.6 km/h 67 % 0.0 mm
11:32 8.3 °C 2.3 °C 1014.1 hPa Calm   1.6 km/h 66 % 0.0 mm
11:37 8.2 °C 2.2 °C 1014.1 hPa Calm   3.2 km/h 66 % 0.0 mm
11:47 8.2 °C 1.8 °C 1014.1 hPa Calm   3.2 km/h 64 % 0.0 mm
18:57 10.4 °C 0.7 °C 1012.8 hPa SW 3.2 km/h 4.8 km/h 51 % 0.0 mm
19:02 10.2 °C 0.2 °C 1012.8 hPa SW 3.2 km/h 4.8 km/h 50 % 0.0 mm
19:07 9.9 °C 0.0 °C 1012.8 hPa Calm   6.4 km/h 50 % 0.0 mm
19:12 9.9 °C 0.2 °C 1012.8 hPa SW 1.6 km/h 6.4 km/h 51 % 0.0 mm
19:17 9.9 °C 0.0 °C 1012.8 hPa SW 1.6 km/h 6.4 km/h 50 % 0.0 mm
19:22 10.0 °C 0.3 °C 1012.8 hPa Calm   6.4 km/h 51 % 0.0 mm
19:27 10.0 °C -0.5 °C 1012.8 hPa SW 1.6 km/h 4.8 km/h 48 % 0.0 mm
19:32 10.0 °C -0.2 °C 1012.8 hPa Calm   4.8 km/h 49 % 0.0 mm
19:37 9.9 °C 0.0 °C 1012.8 hPa Calm   6.4 km/h 50 % 0.0 mm
19:42 9.9 °C 0.0 °C 1013.1 hPa SW 1.6 km/h 6.4 km/h 50 % 0.0 mm
20:12 8.8 °C 0.5 °C 1013.1 hPa Calm   3.2 km/h 56 % 0.0 mm
20:17 8.6 °C 1.3 °C 1013.1 hPa Calm   3.2 km/h 60 % 0.0 mm
20:22 8.3 °C 1.7 °C 1013.1 hPa Calm   3.2 km/h 63 % 0.0 mm
20:27 7.7 °C 2.0 °C 1013.1 hPa Calm   1.6 km/h 67 % 0.0 mm
20:32 7.2 °C 1.7 °C 1013.1 hPa Calm   1.6 km/h 68 % 0.0 mm
20:42 6.4 °C 1.5 °C 1013.1 hPa Calm   1.6 km/h 71 % 0.0 mm
20:47 6.4 °C 0.7 °C 1013.1 hPa Calm     67 % 0.0 mm
20:52 6.6 °C 1.1 °C 1013.1 hPa Calm     68 % 0.0 mm
21:02 6.5 °C 1.6 °C 1013.1 hPa Calm   1.6 km/h 71 % 0.0 mm
21:07 6.4 °C 1.9 °C 1013.1 hPa Calm   1.6 km/h 73 % 0.0 mm
21:12 6.3 °C 1.8 °C 1013.1 hPa Calm   1.6 km/h 73 % 0.0 mm
21:22 5.8 °C 1.7 °C 1013.1 hPa Calm     75 % 0.0 mm
21:27 5.6 °C 1.7 °C 1013.1 hPa Calm     76 % 0.0 mm
21:32 5.2 °C 1.7 °C 1013.1 hPa Calm     78 % 0.0 mm
21:37 4.9 °C 1.6 °C 1013.1 hPa Calm     79 % 0.0 mm
21:42 4.6 °C 1.4 °C 1013.1 hPa Calm     80 % 0.0 mm
21:47 4.2 °C 1.2 °C 1013.1 hPa Calm     81 % 0.0 mm
21:52 3.9 °C 1.1 °C 1013.4 hPa Calm     82 % 0.0 mm
21:57 3.8 °C 1.0 °C 1013.4 hPa Calm     82 % 0.0 mm
22:02 3.8 °C 1.0 °C 1013.4 hPa Calm     82 % 0.0 mm
22:07 3.7 °C 0.9 °C 1013.4 hPa Calm     82 % 0.0 mm
22:12 3.7 °C 1.2 °C 1013.4 hPa Calm     84 % 0.0 mm
22:17 3.8 °C 1.2 °C 1013.8 hPa ENE 1.6 km/h 1.6 km/h 83 % 0.0 mm
22:22 4.3 °C 1.2 °C 1013.8 hPa Calm   1.6 km/h 80 % 0.0 mm
22:32 4.2 °C 1.6 °C 1013.8 hPa Calm   3.2 km/h 83 % 0.0 mm
22:37 4.0 °C 1.5 °C 1013.8 hPa Calm   1.6 km/h 84 % 0.0 mm
22:42 3.8 °C 1.3 °C 1013.8 hPa Calm   1.6 km/h 84 % 0.0 mm
22:52 3.6 °C 1.5 °C 1013.8 hPa Calm   1.6 km/h 86 % 0.0 mm
22:57 3.6 °C 1.5 °C 1013.8 hPa Calm   1.6 km/h 86 % 0.0 mm
23:02 3.5 °C 1.5 °C 1013.8 hPa Calm   1.6 km/h 87 % 0.0 mm
23:07 3.6 °C 1.5 °C 1013.8 hPa Calm   1.6 km/h 86 % 0.0 mm
23:12 3.6 °C 1.5 °C 1013.8 hPa Calm   1.6 km/h 86 % 0.0 mm
23:17 3.4 °C 1.3 °C 1013.8 hPa Calm   1.6 km/h 86 % 0.0 mm
23:22 3.3 °C 1.3 °C 1013.8 hPa Calm   1.6 km/h 87 % 0.0 mm
23:27 3.1 °C 1.1 °C 1013.8 hPa Calm     87 % 0.0 mm
23:32 2.8 °C 1.0 °C 1013.8 hPa Calm     88 % 0.0 mm
23:37 2.5 °C 0.7 °C 1013.8 hPa Calm     88 % 0.0 mm
23:42 2.4 °C 0.8 °C 1014.1 hPa Calm     89 % 0.0 mm
23:47 2.3 °C 0.7 °C 1013.8 hPa Calm   1.6 km/h 89 % 0.0 mm
23:52 2.0 °C 0.2 °C 1014.1 hPa Calm   1.6 km/h 88 % 0.0 mm
23:57 1.7 °C 0.1 °C 1014.1 hPa Calm     89 % 0.0 mm
Meteo18
Compliments of Weather Underground - 4 mb

Script developed by  Jim McMurry - jmcmurry@mwt.net Adapted for the template by  Wim van der Kuil - Leuven-Template.eu

You find our weather info also at:

European Weather Network

Weather Underground

Equipment we use:

Weather-station
Davis Vue

Weather-program
Meteohub

Weather-server
Raspberry PI 2 B+

Provider
1 and 1

Davis Vue

Meteohub

Raspberry PI 2 B+

1 and 1